Home   Weather   Spain   Málaga   Past weeks
Flag for Spain

Past Weather in Málaga, Spain — Yesterday and Last 2 Weeks

Currently: 61 °F. Passing clouds. (Weather station: Malaga / Aeropuerto, Spain). See more current weather

Past Weather in Málaga — Graph

°F

Málaga Temperature Yesterday

Maximum temperature yesterday: 81 °F (at 6:00 pm)
Minimum temperature yesterday: 54 °F (at 6:30 am)
Average temperature yesterday: 67 °F

High & Low Weather Summary for the Past Weeks

 TemperatureHumidityPressure
High81 °F (Apr 20, 6:00 pm)100% (Apr 10, 1:30 am)30.24 "Hg (Apr 10, 1:30 am)
Low52 °F (Apr 6, 6:00 am)30% (Apr 20, 6:00 pm)29.83 "Hg (Apr 6, 6:00 pm)
Average62 °F79%30.03 "Hg
* Reported Apr 6 6:00 am — Apr 21 6:30 am, Málaga. Weather by CustomWeather, © 2021

Note: Actual official high and low records may vary slightly from our data, if they occured in-between our weather recording intervals... More about our weather records

Málaga Weather History for the Previous 24 Hours

Scroll right to see more
 ConditionsComfort  
Time TempWeatherWind HumidityBarometerVisibility
6:30 am
Wed, Apr 21
63 °FClear.9 mph64%29.86 "Hg10 mi
6:00 am63 °FClear.10 mph64%29.86 "Hg10 mi
5:30 am59 °FClear.7 mph72%29.86 "Hg10 mi
5:00 am61 °FClear.10 mph68%29.86 "Hg10 mi
4:30 am61 °FClear.10 mph68%29.86 "Hg10 mi
4:00 am61 °FClear.9 mph68%29.86 "Hg10 mi
3:30 am61 °FClear.10 mph68%29.89 "Hg10 mi
3:00 am59 °FClear.10 mph77%29.89 "Hg10 mi
2:30 am63 °FClear.12 mph68%29.89 "Hg10 mi
2:00 am63 °FClear.13 mph68%29.89 "Hg10 mi
1:30 am63 °FClear.10 mph68%29.89 "Hg10 mi
1:00 am63 °FClear.10 mph68%29.89 "Hg10 mi
12:30 am64 °FClear.12 mph64%29.89 "Hg10 mi
12:00 am66 °FClear.12 mph60%29.89 "Hg10 mi
11:30 pm
Tue, Apr 20
68 °FClear.10 mph56%29.89 "Hg10 mi
11:00 pm70 °FClear.9 mph53%29.89 "Hg10 mi
10:30 pm70 °FClear.9 mph50%29.89 "Hg10 mi
10:00 pm70 °FPassing clouds.7 mph50%29.89 "HgN/A
9:30 pm70 °FPassing clouds.6 mph50%29.86 "HgN/A
9:00 pm72 °FPassing clouds.9 mph47%29.86 "HgN/A
8:30 pm73 °FPassing clouds.10 mph41%29.86 "HgN/A
8:00 pm75 °FPassing clouds.14 mph39%29.86 "HgN/A
7:30 pm77 °FPassing clouds.15 mph34%29.86 "HgN/A
7:00 pm77 °FPassing clouds.12 mph34%29.86 "HgN/A
6:30 pm79 °FPassing clouds.10 mph34%29.86 "HgN/A
6:00 pm81 °FPassing clouds.12 mph30%29.86 "HgN/A
5:30 pm79 °FPassing clouds.13 mph37%29.86 "HgN/A
5:00 pm79 °FPassing clouds.5 mph42%29.86 "HgN/A
4:30 pm77 °FPassing clouds.9 mph47%29.86 "HgN/A
4:00 pm75 °FPassing clouds.13 mph50%29.86 "HgN/A
3:30 pm75 °FPassing clouds.14 mph47%29.89 "HgN/A
3:00 pm77 °FPassing clouds.12 mph47%29.89 "HgN/A
2:30 pm77 °FScattered clouds.9 mph44%29.89 "HgN/A
2:00 pm77 °FScattered clouds.9 mph42%29.92 "HgN/A
1:30 pm75 °FPassing clouds.8 mph44%29.92 "HgN/A
1:00 pm75 °FPassing clouds.8 mph41%29.92 "HgN/A
12:30 pm73 °FPassing clouds.7 mph53%29.95 "HgN/A
12:00 pm73 °FPassing clouds.6 mph50%29.95 "HgN/A
11:30 am72 °FPassing clouds.3 mph53%29.95 "HgN/A
11:00 am70 °FPassing clouds.7 mph46%29.95 "HgN/A
10:30 am68 °FSunny.8 mph53%29.95 "Hg10 mi
10:00 am64 °FSunny.9 mph68%29.95 "Hg10 mi
9:30 am61 °FSunny.8 mph72%29.95 "Hg10 mi
9:00 am59 °FSunny.7 mph72%29.95 "Hg10 mi
8:30 am57 °FSunny.6 mph77%29.95 "Hg10 mi
8:00 am55 °FSunny.9 mph82%29.95 "Hg10 mi
Weather by CustomWeather, © 2021

See weather overview